Time;durP1;ratioP1;P1;durP2;ratioP2;P2;SDS_P1;SDS_P2;PMS_P1;PMS_P2;Temp;Humidity;BMP_temperature;BMP_pressure;BME280_temperature;BME280_humidity;BME280_pressure;Samples;Min_cycle;Max_cycle;Signal;HPM_P1;HPM_P2
2023/01/20 00:01:11;;;;;;;6.82;5.38;;;5.00;80.80;;;;;;5096476;28;20078;-85
2023/01/20 00:03:38;;;;;;;8.30;6.55;;;5.00;80.80;;;;;;5077415;28;20484;-85
2023/01/20 00:06:04;;;;;;;7.18;5.07;;;5.00;80.80;;;;;;5083608;28;20024;-85
2023/01/20 00:08:30;;;;;;;8.32;5.75;;;5.00;80.80;;;;;;5084958;28;20570;-86
2023/01/20 00:10:55;;;;;;;8.45;6.25;;;5.00;80.80;;;;;;5077552;28;20054;-85
2023/01/20 00:13:21;;;;;;;7.25;5.82;;;5.00;80.80;;;;;;5077985;28;20067;-86
2023/01/20 00:15:47;;;;;;;6.80;5.22;;;5.00;80.80;;;;;;5067063;28;20556;-85
2023/01/20 00:18:13;;;;;;;7.03;5.35;;;5.00;80.80;;;;;;5074413;28;20028;-85
2023/01/20 00:20:39;;;;;;;7.80;6.07;;;5.00;80.80;;;;;;5092604;28;20475;-85
2023/01/20 00:23:05;;;;;;;8.32;5.68;;;5.00;80.80;;;;;;5067089;28;20024;-86
2023/01/20 00:25:33;;;;;;;7.80;5.55;;;5.00;80.80;;;;;;5083161;28;20027;-85
2023/01/20 00:27:59;;;;;;;8.10;6.15;;;5.00;80.80;;;;;;5100247;28;20024;-85
2023/01/20 00:30:25;;;;;;;8.15;6.07;;;5.00;81.40;;;;;;5028001;28;20024;-86
2023/01/20 00:32:51;;;;;;;8.50;6.50;;;4.90;80.70;;;;;;5058252;28;20035;-86
2023/01/20 00:35:16;;;;;;;8.20;6.15;;;4.90;80.70;;;;;;5068814;28;20047;-86
2023/01/20 00:37:42;;;;;;;8.27;6.30;;;5.00;80.70;;;;;;5065935;28;20477;-86
2023/01/20 00:40:10;;;;;;;8.80;6.72;;;5.00;80.80;;;;;;5075048;28;20465;-85
2023/01/20 00:42:36;;;;;;;9.05;6.55;;;5.00;80.80;;;;;;5075034;28;20067;-86
2023/01/20 00:45:02;;;;;;;9.45;6.85;;;5.00;80.80;;;;;;5054858;28;20024;-86
2023/01/20 00:47:27;;;;;;;9.90;7.35;;;4.90;80.70;;;;;;5097240;28;20048;-85
2023/01/20 00:49:53;;;;;;;9.43;7.00;;;5.00;80.80;;;;;;5084842;28;20059;-85
2023/01/20 00:52:19;;;;;;;10.32;7.60;;;4.90;80.70;;;;;;5094347;28;20181;-85
2023/01/20 00:54:44;;;;;;;10.02;7.20;;;4.90;80.70;;;;;;5095601;28;20036;-86
2023/01/20 00:57:11;;;;;;;9.80;7.28;;;5.00;80.80;;;;;;5064313;28;20066;-85
2023/01/20 00:59:36;;;;;;;11.27;7.95;;;5.00;80.80;;;;;;5087331;28;20038;-87
2023/01/20 01:02:03;;;;;;;10.32;7.35;;;4.90;80.70;;;;;;5077760;28;20024;-86
2023/01/20 01:04:29;;;;;;;10.95;8.00;;;5.00;80.80;;;;;;5087028;28;20123;-86
2023/01/20 01:06:55;;;;;;;11.93;8.30;;;4.90;80.70;;;;;;5083580;28;20507;-85
2023/01/20 01:09:21;;;;;;;10.77;8.23;;;4.90;80.70;;;;;;5071112;28;20028;-85
2023/01/20 01:11:47;;;;;;;10.85;8.32;;;4.90;80.80;;;;;;5061719;28;20619;-85
2023/01/20 01:14:13;;;;;;;11.57;8.27;;;4.90;80.70;;;;;;5083528;28;20034;-86
2023/01/20 01:16:41;;;;;;;12.45;8.90;;;4.90;80.80;;;;;;5101403;28;20032;-85
2023/01/20 01:19:07;;;;;;;11.10;8.60;;;4.90;80.70;;;;;;5096855;28;20570;-85
2023/01/20 01:21:33;;;;;;;12.32;9.23;;;4.90;80.70;;;;;;5077125;28;20020;-85
2023/01/20 01:23:59;;;;;;;11.25;8.32;;;4.90;80.70;;;;;;5074155;28;20063;-86
2023/01/20 01:26:25;;;;;;;11.85;8.38;;;4.90;80.70;;;;;;5062392;28;20027;-85
2023/01/20 01:28:51;;;;;;;12.95;9.55;;;4.90;80.70;;;;;;5063362;28;20475;-87
2023/01/20 01:31:20;;;;;;;12.00;8.60;;;4.90;80.70;;;;;;5076673;28;20443;-85
2023/01/20 01:33:47;;;;;;;11.52;9.05;;;4.90;80.70;;;;;;5061391;28;20055;-86
2023/01/20 01:36:15;;;;;;;12.40;9.07;;;4.90;80.70;;;;;;5063247;28;20064;-87
2023/01/20 01:38:41;;;;;;;11.75;8.90;;;4.90;80.70;;;;;;5077598;28;20035;-86
2023/01/20 01:41:12;;;;;;;10.50;8.32;;;4.90;80.70;;;;;;5092565;28;20073;-85
2023/01/20 01:43:58;;;;;;;11.25;8.07;;;4.90;80.70;;;;;;5077524;28;20460;-86
2023/01/20 01:46:23;;;;;;;;;;;4.90;80.70;;;;;;5088500;28;20024;-85
2023/01/20 01:48:49;;;;;;;9.52;7.57;;;4.80;80.50;;;;;;5088652;28;20077;-85
2023/01/20 01:51:22;;;;;;;11.27;8.18;;;4.90;80.50;;;;;;5094411;28;20031;-85
2023/01/20 01:53:56;;;;;;;10.43;8.05;;;4.90;80.70;;;;;;5065378;28;20448;-88
2023/01/20 01:56:24;;;;;;;12.97;8.30;;;4.90;80.70;;;;;;5074016;28;20039;-86
2023/01/20 01:58:51;;;;;;;10.38;7.60;;;4.90;80.70;;;;;;5076249;28;20837;-85
2023/01/20 02:01:17;;;;;;;12.80;9.70;;;4.90;80.70;;;;;;5077638;28;20683;-86
2023/01/20 02:03:51;;;;;;;11.48;8.63;;;4.90;80.70;;;;;;5041132;28;20035;-87
2023/01/20 02:06:18;;;;;;;11.48;8.13;;;4.90;80.80;;;;;;5059504;28;20109;-84
2023/01/20 02:08:45;;;;;;;10.90;8.18;;;4.90;80.70;;;;;;5055876;28;20132;-86
2023/01/20 02:11:11;;;;;;;11.07;8.30;;;4.90;80.70;;;;;;5079772;28;20032;-85
2023/01/20 02:13:37;;;;;;;11.23;8.65;;;4.90;80.70;;;;;;5091560;28;20047;-86
2023/01/20 02:16:34;;;;;;;10.88;8.43;;;4.90;80.70;;;;;;5073942;28;20036;-86
2023/01/20 02:19:12;;;;;;;10.68;7.63;;;4.90;80.70;;;;;;5093343;28;20081;-85
2023/01/20 02:21:38;;;;;;;10.38;7.63;;;4.90;80.70;;;;;;5088537;28;20143;-85
2023/01/20 02:24:35;;;;;;;12.02;8.57;;;4.90;80.70;;;;;;5050592;28;20045;-86
2023/01/20 02:27:27;;;;;;;11.20;8.13;;;4.90;80.70;;;;;;5063680;28;20031;-86
2023/01/20 02:29:55;;;;;;;10.57;7.68;;;4.90;80.80;;;;;;5065185;28;20688;-85
2023/01/20 02:32:24;;;;;;;10.80;7.65;;;4.80;80.60;;;;;;5047745;28;20100;-86
2023/01/20 02:34:58;;;;;;;10.82;7.57;;;4.90;80.70;;;;;;5061020;28;20108;-85
2023/01/20 02:37:31;;;;;;;10.82;7.70;;;4.90;80.70;;;;;;5065737;28;20092;-85
2023/01/20 02:40:03;;;;;;;11.52;8.63;;;4.90;80.70;;;;;;5052632;28;20033;-87
2023/01/20 02:43:03;;;;;;;9.77;7.32;;;4.90;80.70;;;;;;5052326;28;20033;-85
2023/01/20 02:45:43;;;;;;;10.63;7.75;;;4.90;80.70;;;;;;5033862;28;20041;-85
2023/01/20 02:48:26;;;;;;;11.95;8.27;;;4.90;80.70;;;;;;5047037;28;20028;-85
2023/01/20 02:50:54;;;;;;;10.90;7.72;;;4.90;80.70;;;;;;5053136;28;20025;-86
2023/01/20 02:53:23;;;;;;;11.57;8.05;;;4.90;80.70;;;;;;5053338;28;20025;-85
2023/01/20 02:55:51;;;;;;;10.93;7.72;;;4.80;80.60;;;;;;5060559;28;20048;-84
2023/01/20 02:58:21;;;;;;;10.88;7.78;;;4.90;80.70;;;;;;5064745;28;20029;-85
2023/01/20 03:00:56;;;;;;;9.93;7.38;;;4.90;80.70;;;;;;5064529;28;20028;-85
2023/01/20 03:03:27;;;;;;;10.70;7.97;;;4.90;80.70;;;;;;5050858;28;20029;-87
2023/01/20 03:05:57;;;;;;;12.80;8.20;;;4.90;80.70;;;;;;5040846;28;20498;-86
2023/01/20 03:08:25;;;;;;;10.57;7.82;;;4.90;80.70;;;;;;5050421;28;20033;-85
2023/01/20 03:10:53;;;;;;;9.65;8.07;;;4.90;80.70;;;;;;5051846;28;20029;-85
2023/01/20 03:13:33;;;;;;;12.07;8.35;;;4.90;80.70;;;;;;5050411;28;20029;-85
2023/01/20 03:16:11;;;;;;;11.25;7.93;;;4.90;80.70;;;;;;5053085;28;20060;-85
2023/01/20 03:18:38;;;;;;;10.98;8.15;;;4.90;80.70;;;;;;5051675;28;20028;-86
2023/01/20 03:21:05;;;;;;;10.45;7.22;;;4.90;80.70;;;;;;5052672;28;20421;-84
2023/01/20 03:23:35;;;;;;;11.65;8.25;;;4.90;80.70;;;;;;5068714;28;20048;-86
2023/01/20 03:26:06;;;;;;;12.43;8.55;;;4.90;80.70;;;;;;5065520;28;20024;-86
2023/01/20 03:28:32;;;;;;;12.05;8.60;;;4.90;80.70;;;;;;5079972;28;20107;-85
2023/01/20 03:31:00;;;;;;;10.98;7.88;;;4.90;80.70;;;;;;5059392;28;20127;-85
2023/01/20 03:33:26;;;;;;;12.00;8.40;;;4.90;80.70;;;;;;5065797;28;20107;-85
2023/01/20 03:35:53;;;;;;;11.30;8.15;;;4.90;80.60;;;;;;5084079;28;20134;-85
2023/01/20 03:38:19;;;;;;;11.27;8.20;;;4.90;80.70;;;;;;5078453;28;20024;-86
2023/01/20 03:41:00;;;;;;;11.57;8.85;;;4.80;80.60;;;;;;5081933;28;20031;-85
2023/01/20 03:43:39;;;;;;;11.85;8.20;;;4.90;80.70;;;;;;5076409;28;20020;-85
2023/01/20 03:46:13;;;;;;;12.13;8.65;;;4.90;81.30;;;;;;5059105;28;20435;-85
2023/01/20 03:48:49;;;;;;;11.18;7.78;;;4.90;80.70;;;;;;5080224;28;20035;-87
2023/01/20 03:51:27;;;;;;;11.93;8.20;;;4.90;80.70;;;;;;5053295;28;20472;-87
2023/01/20 03:54:17;;;;;;;11.65;8.45;;;4.90;80.70;;;;;;5076983;28;20020;-86
2023/01/20 03:56:50;;;;;;;12.93;9.27;;;4.90;80.70;;;;;;5084848;28;20074;-85
2023/01/20 03:59:19;;;;;;;13.63;9.10;;;4.90;80.70;;;;;;5058430;28;20027;-86
2023/01/20 04:01:45;;;;;;;12.80;8.63;;;4.90;80.70;;;;;;5064662;28;20046;-85
2023/01/20 04:04:15;;;;;;;14.00;8.98;;;4.90;80.70;;;;;;5058059;28;20048;-86
2023/01/20 04:06:43;;;;;;;12.68;8.95;;;4.90;80.70;;;;;;5074997;28;20495;-85
2023/01/20 04:09:21;;;;;;;14.25;9.52;;;4.90;80.60;;;;;;5078182;28;20050;-85
2023/01/20 04:11:48;;;;;;;13.45;9.18;;;4.90;80.70;;;;;;5077454;28;20734;-86
2023/01/20 04:14:13;;;;;;;12.45;8.77;;;4.90;80.60;;;;;;5058954;28;20070;-86
2023/01/20 04:16:39;;;;;;;15.02;9.77;;;4.90;80.60;;;;;;5077905;28;20127;-85
2023/01/20 04:19:05;;;;;;;13.55;9.32;;;4.90;80.60;;;;;;5071849;28;20036;-85
2023/01/20 04:21:48;;;;;;;13.57;9.75;;;4.90;80.60;;;;;;5073789;28;20033;-86
2023/01/20 04:24:22;;;;;;;15.77;10.40;;;4.90;80.70;;;;;;5073021;28;20052;-85
2023/01/20 04:26:48;;;;;;;14.27;10.57;;;4.90;80.70;;;;;;5068082;28;20029;-85
2023/01/20 04:29:14;;;;;;;14.05;10.00;;;4.90;80.60;;;;;;5075069;28;20108;-85
2023/01/20 04:31:39;;;;;;;14.27;9.25;;;4.90;80.70;;;;;;5075627;28;20495;-84
2023/01/20 04:34:05;;;;;;;17.40;10.73;;;4.90;80.70;;;;;;5074818;28;20448;-85
2023/01/20 04:36:31;;;;;;;14.43;9.90;;;4.90;80.70;;;;;;5092190;28;20037;-87
2023/01/20 04:38:57;;;;;;;16.92;10.75;;;4.80;80.70;;;;;;5074568;28;20028;-86
2023/01/20 04:41:23;;;;;;;13.93;9.80;;;4.90;80.70;;;;;;5058156;28;20071;-85
2023/01/20 04:43:49;;;;;;;14.65;10.13;;;4.90;80.70;;;;;;5047554;28;20422;-85
2023/01/20 04:46:15;;;;;;;14.93;10.15;;;4.90;80.70;;;;;;5038401;28;20128;-85
2023/01/20 04:48:44;;;;;;;14.60;10.30;;;4.90;80.70;;;;;;5074987;28;20020;-85
2023/01/20 04:51:09;;;;;;;15.68;10.52;;;4.90;80.70;;;;;;5057946;28;20094;-85
2023/01/20 04:53:35;;;;;;;14.50;10.00;;;4.80;80.70;;;;;;5062503;28;20024;-86
2023/01/20 04:56:01;;;;;;;13.02;9.57;;;4.90;80.70;;;;;;5082289;28;20047;-85
2023/01/20 04:58:26;;;;;;;14.65;9.93;;;4.80;80.70;;;;;;5063390;28;20040;-85
2023/01/20 05:00:52;;;;;;;15.40;9.98;;;4.90;80.70;;;;;;5076874;28;20025;-87
2023/01/20 05:03:18;;;;;;;15.35;10.10;;;4.90;80.70;;;;;;5057572;28;20081;-84
2023/01/20 05:05:51;;;;;;;15.32;10.60;;;4.90;80.70;;;;;;5074450;28;20385;-86
2023/01/20 05:08:17;;;;;;;13.68;9.52;;;4.90;80.70;;;;;;5073984;28;20032;-85
2023/01/20 05:10:43;;;;;;;14.70;9.65;;;4.90;80.70;;;;;;5041007;28;20031;-85
2023/01/20 05:13:09;;;;;;;15.43;10.48;;;4.90;80.70;;;;;;5077110;28;20031;-84
2023/01/20 05:15:34;;;;;;;13.77;9.32;;;4.90;80.70;;;;;;5091314;28;20124;-85
2023/01/20 05:18:00;;;;;;;15.50;9.90;;;4.80;80.60;;;;;;5073923;28;20043;-85
2023/01/20 05:20:26;;;;;;;15.43;10.35;;;4.80;80.70;;;;;;5075839;28;20532;-85
2023/01/20 05:22:52;;;;;;;14.25;9.35;;;4.90;80.70;;;;;;5064064;28;20039;-86
2023/01/20 05:25:18;;;;;;;15.15;10.05;;;4.80;80.60;;;;;;5083990;28;20053;-85
2023/01/20 05:27:44;;;;;;;15.55;10.50;;;4.90;80.70;;;;;;5070081;28;20048;-85
2023/01/20 05:30:10;;;;;;;14.90;9.95;;;4.80;80.70;;;;;;5072748;28;20028;-87
2023/01/20 05:32:36;;;;;;;16.42;10.90;;;4.80;80.70;;;;;;5071920;28;20036;-87
2023/01/20 05:35:01;;;;;;;16.73;10.30;;;4.80;80.60;;;;;;5063634;28;20024;-86
2023/01/20 05:37:27;;;;;;;15.23;10.52;;;4.90;80.70;;;;;;5059165;28;20552;-85
2023/01/20 05:39:53;;;;;;;14.73;9.85;;;4.90;80.70;;;;;;5072651;28;20039;-91
2023/01/20 05:42:19;;;;;;;15.63;10.75;;;4.80;80.70;;;;;;5058446;28;20039;-84
2023/01/20 05:44:44;;;;;;;13.95;9.35;;;4.80;80.70;;;;;;5044599;28;20032;-83
2023/01/20 05:47:10;;;;;;;13.98;9.68;;;4.90;80.70;;;;;;5055813;28;20043;-85
2023/01/20 05:49:36;;;;;;;14.02;9.55;;;4.80;80.60;;;;;;5053426;28;20029;-84
2023/01/20 05:52:02;;;;;;;15.98;10.93;;;4.80;80.60;;;;;;5064311;28;20070;-86
2023/01/20 05:54:28;;;;;;;12.10;8.55;;;4.90;80.70;;;;;;5058904;28;20028;-85
2023/01/20 05:56:53;;;;;;;15.40;9.32;;;4.90;80.70;;;;;;5074618;28;20119;-85
2023/01/20 05:59:19;;;;;;;13.57;9.35;;;4.80;80.60;;;;;;5080254;28;20425;-85
2023/01/20 06:01:45;;;;;;;13.15;9.40;;;4.80;80.60;;;;;;5055916;28;20024;-87
2023/01/20 06:04:11;;;;;;;14.43;9.05;;;4.90;80.70;;;;;;5059419;28;20488;-85
2023/01/20 06:06:36;;;;;;;13.70;8.85;;;4.90;80.70;;;;;;5056948;28;20111;-85
2023/01/20 06:09:05;;;;;;;15.30;9.52;;;4.80;80.60;;;;;;5057201;28;20398;-86
2023/01/20 06:11:32;;;;;;;14.85;9.45;;;4.80;80.70;;;;;;5059751;28;20036;-85
2023/01/20 06:13:58;;;;;;;13.38;9.07;;;4.80;80.60;;;;;;5060616;28;20037;-85
2023/01/20 06:16:23;;;;;;;15.48;9.52;;;4.80;80.60;;;;;;5059541;28;20140;-78
2023/01/20 06:18:49;;;;;;;14.45;9.65;;;4.80;80.60;;;;;;5058646;28;20039;-81
2023/01/20 06:21:15;;;;;;;12.50;9.27;;;4.90;80.70;;;;;;5053550;28;20031;-85
2023/01/20 06:23:41;;;;;;;14.50;9.65;;;4.80;80.60;;;;;;5076094;28;20105;-82
2023/01/20 06:26:11;;;;;;;13.27;8.82;;;4.90;80.70;;;;;;5075937;28;20054;-85
2023/01/20 06:28:37;;;;;;;12.65;8.90;;;4.80;80.60;;;;;;5073398;28;20046;-84
2023/01/20 06:31:05;;;;;;;13.23;8.82;;;4.80;80.60;;;;;;5058640;28;20028;-87
2023/01/20 06:33:32;;;;;;;13.32;8.90;;;4.80;80.60;;;;;;5075643;28;20024;-86
2023/01/20 06:35:58;;;;;;;14.40;9.18;;;4.80;80.60;;;;;;5078048;28;20080;-86
2023/01/20 06:38:25;;;;;;;13.95;8.57;;;4.80;80.70;;;;;;5040374;28;20119;-85
2023/01/20 06:40:56;;;;;;;14.10;9.35;;;4.80;80.70;;;;;;5081125;28;20035;-87
2023/01/20 06:43:22;;;;;;;15.07;9.48;;;4.80;80.70;;;;;;5066407;28;20024;-88
2023/01/20 06:45:48;;;;;;;12.98;8.38;;;4.80;80.70;;;;;;5072962;28;20035;-87
2023/01/20 06:48:13;;;;;;;13.30;8.88;;;4.90;80.70;;;;;;5084218;28;20233;-87
2023/01/20 06:50:39;;;;;;;13.73;8.63;;;4.80;80.70;;;;;;5080442;28;20028;-87
2023/01/20 06:53:05;;;;;;;13.48;9.18;;;4.80;80.60;;;;;;5084648;28;20477;-87
2023/01/20 06:55:31;;;;;;;13.70;8.32;;;4.80;80.60;;;;;;5067971;28;20036;-87
2023/01/20 06:57:56;;;;;;;12.35;8.73;;;4.80;80.70;;;;;;5044667;28;20613;-84
2023/01/20 07:00:23;;;;;;;14.88;9.35;;;4.80;80.60;;;;;;5061124;28;20586;-84
2023/01/20 07:02:48;;;;;;;17.10;9.18;;;4.80;80.60;;;;;;5058869;28;20350;-84
2023/01/20 07:05:14;;;;;;;13.82;8.65;;;4.80;80.60;;;;;;5060980;28;20028;-85
2023/01/20 07:07:44;;;;;;;13.85;8.50;;;4.80;80.60;;;;;;5070013;28;20031;-83
2023/01/20 07:10:10;;;;;;;11.13;8.05;;;4.80;80.70;;;;;;5079539;28;20028;-84
2023/01/20 07:12:36;;;;;;;13.98;9.80;;;4.80;80.70;;;;;;5085794;28;20110;-82
2023/01/20 07:15:02;;;;;;;12.48;8.45;;;4.80;80.60;;;;;;5092244;28;20446;-84
2023/01/20 07:17:28;;;;;;;11.52;7.65;;;4.80;80.60;;;;;;5062431;28;20032;-84
2023/01/20 07:19:54;;;;;;;13.10;8.52;;;4.90;80.70;;;;;;5059747;28;20120;-85
2023/01/20 07:22:19;;;;;;;14.20;9.48;;;4.80;80.70;;;;;;5056852;28;20036;-85
2023/01/20 07:24:45;;;;;;;12.93;8.35;;;4.80;80.70;;;;;;5080132;28;20047;-84
2023/01/20 07:27:11;;;;;;;12.00;8.52;;;4.80;80.60;;;;;;5055497;28;20032;-85
2023/01/20 07:29:37;;;;;;;13.50;8.38;;;4.80;80.60;;;;;;5083701;28;20034;-84
2023/01/20 07:32:03;;;;;;;12.60;8.77;;;4.80;80.60;;;;;;5077047;28;20020;-83
2023/01/20 07:34:28;;;;;;;13.68;8.60;;;4.80;80.60;;;;;;5063266;28;20016;-85
2023/01/20 07:36:54;;;;;;;14.07;9.32;;;4.80;80.70;;;;;;5085379;28;20032;-84
2023/01/20 07:39:20;;;;;;;13.70;9.07;;;4.80;80.70;;;;;;5076470;28;20030;-83
2023/01/20 07:41:49;;;;;;;12.93;8.85;;;4.80;80.70;;;;;;5077097;28;20028;-84
2023/01/20 07:44:15;;;;;;;12.88;8.63;;;4.80;80.70;;;;;;5067383;28;20488;-86
2023/01/20 07:46:41;;;;;;;12.20;8.05;;;4.80;80.70;;;;;;5080018;28;20028;-83
2023/01/20 07:49:07;;;;;;;12.68;8.95;;;4.80;80.70;;;;;;5061214;28;20032;-83
2023/01/20 07:51:33;;;;;;;13.10;9.05;;;4.80;80.70;;;;;;5076906;28;20877;-81
2023/01/20 07:53:59;;;;;;;14.75;9.60;;;4.80;80.70;;;;;;5060072;28;20063;-87
2023/01/20 07:56:26;;;;;;;13.10;8.88;;;4.80;80.70;;;;;;5082274;28;20040;-86
2023/01/20 07:58:53;;;;;;;13.02;8.75;;;4.80;80.70;;;;;;5079429;28;20063;-85
2023/01/20 08:01:25;;;;;;;13.45;8.95;;;4.80;80.60;;;;;;5062290;28;20568;-85
2023/01/20 08:03:51;;;;;;;13.20;8.38;;;4.80;80.60;;;;;;5073112;28;20028;-87
2023/01/20 08:06:20;;;;;;;15.43;9.30;;;4.80;80.60;;;;;;5066406;28;20710;-85
2023/01/20 08:08:46;;;;;;;14.30;9.30;;;4.80;80.70;;;;;;5063273;28;20031;-84
2023/01/20 08:11:14;;;;;;;13.45;9.57;;;4.80;80.60;;;;;;5077654;28;20028;-86
2023/01/20 08:13:40;;;;;;;13.73;9.15;;;4.80;80.60;;;;;;5077936;28;20031;-85
2023/01/20 08:16:09;;;;;;;12.85;8.60;;;4.80;80.60;;;;;;5083301;28;20032;-84
2023/01/20 08:18:35;;;;;;;14.07;9.82;;;4.90;80.70;;;;;;5070977;28;20533;-85
2023/01/20 08:21:05;;;;;;;12.98;9.10;;;4.80;80.60;;;;;;5096180;28;20024;-85
2023/01/20 08:23:32;;;;;;;13.30;8.90;;;4.80;80.60;;;;;;5072928;28;20028;-85
2023/01/20 08:26:00;;;;;;;13.68;9.57;;;4.80;80.60;;;;;;5066794;28;20036;-85
2023/01/20 08:28:27;;;;;;;14.75;8.85;;;4.80;80.60;;;;;;5062865;28;20028;-86
2023/01/20 08:30:53;;;;;;;12.80;9.25;;;4.80;80.60;;;;;;5085170;28;20024;-85
2023/01/20 08:33:19;;;;;;;12.70;8.77;;;4.80;80.60;;;;;;5095158;28;20213;-85
2023/01/20 08:35:46;;;;;;;13.30;9.38;;;4.80;80.60;;;;;;5099227;28;20032;-85
2023/01/20 08:38:12;;;;;;;13.93;9.20;;;4.80;80.70;;;;;;5049385;28;20107;-85
2023/01/20 08:40:42;;;;;;;14.27;9.52;;;4.80;80.70;;;;;;5089088;28;20051;-85
2023/01/20 08:43:08;;;;;;;14.25;8.95;;;4.80;80.70;;;;;;5060473;28;20041;-85
2023/01/20 08:45:33;;;;;;;14.98;9.90;;;4.80;80.60;;;;;;5083537;28;20098;-86
2023/01/20 08:47:59;;;;;;;13.05;9.43;;;4.80;80.60;;;;;;5082514;28;20095;-86
2023/01/20 08:50:25;;;;;;;14.95;9.30;;;4.80;80.60;;;;;;5063503;28;20059;-85
2023/01/20 08:52:51;;;;;;;13.95;9.35;;;4.80;80.60;;;;;;5077891;28;20032;-85
2023/01/20 08:55:16;;;;;;;15.95;9.77;;;4.80;80.60;;;;;;5073442;28;20046;-85
2023/01/20 08:57:42;;;;;;;14.57;9.93;;;4.80;80.60;;;;;;5089575;28;20057;-82
2023/01/20 09:00:09;;;;;;;15.02;10.25;;;4.80;80.60;;;;;;5075401;28;20028;-87
2023/01/20 09:02:36;;;;;;;13.13;9.25;;;4.80;80.60;;;;;;5087202;28;20035;-87
2023/01/20 09:05:03;;;;;;;15.05;9.45;;;4.80;80.70;;;;;;5065177;28;20115;-89
2023/01/20 09:07:29;;;;;;;13.00;8.95;;;4.80;80.60;;;;;;5102391;28;20020;-86
2023/01/20 09:09:55;;;;;;;13.95;9.48;;;4.90;80.70;;;;;;5095419;28;20089;-88
2023/01/20 09:12:21;;;;;;;16.08;10.63;;;4.80;80.60;;;;;;5060440;28;20032;-86
2023/01/20 09:14:46;;;;;;;15.77;9.68;;;4.80;80.60;;;;;;5064692;28;20465;-86
2023/01/20 09:17:13;;;;;;;16.45;9.82;;;4.90;80.60;;;;;;5045417;28;20047;-86
2023/01/20 09:19:40;;;;;;;13.75;9.50;;;4.80;80.60;;;;;;5086340;28;20124;-87
2023/01/20 09:22:05;;;;;;;15.07;9.93;;;4.90;80.70;;;;;;5086231;28;20468;-87
2023/01/20 09:24:31;;;;;;;13.15;9.48;;;4.90;80.70;;;;;;5078622;28;20146;-86
2023/01/20 09:26:57;;;;;;;15.07;9.50;;;4.90;80.70;;;;;;5046490;28;20383;-87
2023/01/20 09:29:23;;;;;;;16.33;10.80;;;4.90;80.70;;;;;;5077444;28;20028;-85
2023/01/20 09:31:51;;;;;;;14.32;9.70;;;4.90;80.70;;;;;;5077412;28;20132;-87
2023/01/20 09:34:23;;;;;;;14.13;9.18;;;4.90;80.70;;;;;;5062651;28;20181;-87
2023/01/20 09:36:51;;;;;;;14.48;9.15;;;4.90;80.70;;;;;;5077166;28;20032;-87
2023/01/20 09:45:40;;;;;;;14.52;8.85;;;4.90;80.70;;;;;;5099349;28;20480;-87
2023/01/20 09:54:07;;;;;;;12.52;8.43;;;4.80;80.60;;;;;;5096904;28;20028;-88
2023/01/20 09:56:40;;;;;;;13.10;8.95;;;4.90;80.70;;;;;;5063550;28;20032;-88
2023/01/20 09:59:17;;;;;;;12.68;8.60;;;4.80;80.60;;;;;;5093760;28;20024;-87
2023/01/20 10:01:50;;;;;;;12.93;8.82;;;4.90;80.70;;;;;;5076033;28;20020;-89
2023/01/20 10:04:23;;;;;;;14.23;9.27;;;4.90;80.70;;;;;;5077073;28;20028;-86
2023/01/20 10:07:24;;;;;;;15.18;9.45;;;4.90;80.70;;;;;;5079299;28;20035;-86
2023/01/20 10:09:59;;;;;;;13.88;8.70;;;4.90;80.70;;;;;;5061818;28;20537;-86
2023/01/20 10:12:32;;;;;;;12.80;9.05;;;4.90;80.70;;;;;;5061397;28;20032;-90
2023/01/20 10:15:29;;;;;;;13.82;9.27;;;4.90;80.70;;;;;;5082263;28;20032;-86
2023/01/20 10:18:08;;;;;;;13.05;8.85;;;4.80;80.70;;;;;;5061203;28;20135;-85
2023/01/20 10:20:55;;;;;;;14.25;9.98;;;4.90;80.70;;;;;;5078735;28;20056;-85
2023/01/20 10:23:42;;;;;;;14.55;9.43;;;4.90;80.70;;;;;;5100132;28;20089;-84
2023/01/20 10:26:12;;;;;;;13.93;8.68;;;4.90;80.70;;;;;;5077221;28;20074;-85
2023/01/20 10:29:01;;;;;;;12.27;8.75;;;4.90;80.70;;;;;;5077106;28;20121;-87
2023/01/20 10:31:33;;;;;;;13.95;8.88;;;4.90;80.70;;;;;;5078811;28;20417;-84
2023/01/20 10:34:15;;;;;;;11.65;8.48;;;4.90;80.70;;;;;;5071147;28;20112;-84
2023/01/20 10:36:44;;;;;;;13.25;8.40;;;4.90;80.80;;;;;;5077480;28;20033;-83
2023/01/20 10:39:23;;;;;;;12.65;8.52;;;4.90;80.70;;;;;;5080461;28;20028;-84
2023/01/20 10:41:54;;;;;;;12.35;8.13;;;5.00;80.70;;;;;;5096721;28;20046;-85
2023/01/20 10:44:21;;;;;;;13.68;9.05;;;4.90;80.70;;;;;;5075859;28;20024;-85
2023/01/20 10:47:06;;;;;;;13.65;9.20;;;4.90;80.70;;;;;;5079169;28;20077;-84
2023/01/20 10:49:35;;;;;;;13.93;9.20;;;4.90;80.70;;;;;;5074872;28;20020;-87
2023/01/20 10:52:04;;;;;;;11.55;8.35;;;4.90;80.70;;;;;;5059098;28;20039;-87
2023/01/20 10:54:53;;;;;;;14.30;8.98;;;4.90;80.70;;;;;;5076762;28;20404;-87
2023/01/20 10:57:19;;;;;;;12.35;8.30;;;4.90;80.70;;;;;;5075611;28;20043;-85
2023/01/20 10:59:52;;;;;;;12.15;8.18;;;4.90;80.70;;;;;;5075286;28;20028;-85
2023/01/20 11:02:29;;;;;;;13.48;9.32;;;4.90;80.70;;;;;;5078950;28;20036;-84
2023/01/20 11:05:21;;;;;;;12.82;8.80;;;5.00;80.80;;;;;;5071708;28;20036;-86
2023/01/20 11:07:48;;;;;;;12.75;7.85;;;5.00;80.70;;;;;;5075027;28;20040;-85
2023/01/20 11:10:21;;;;;;;12.75;8.65;;;4.90;80.70;;;;;;5078090;28;20062;-84
2023/01/20 11:12:59;;;;;;;13.20;9.45;;;5.00;80.80;;;;;;5081804;28;20024;-84
2023/01/20 11:15:42;;;;;;;13.73;8.65;;;5.00;80.80;;;;;;5079703;28;20476;-85
2023/01/20 11:18:14;;;;;;;12.65;9.05;;;5.00;80.80;;;;;;5073368;28;20028;-85
2023/01/20 11:20:56;;;;;;;13.05;8.77;;;5.00;80.70;;;;;;5060357;28;20039;-84
2023/01/20 11:23:31;;;;;;;11.90;8.55;;;5.00;81.40;;;;;;5074202;28;20039;-86
2023/01/20 11:26:08;;;;;;;13.63;8.75;;;5.00;80.70;;;;;;5092428;28;20036;-84
2023/01/20 11:28:44;;;;;;;13.27;8.13;;;5.00;80.70;;;;;;5094651;28;20032;-89
2023/01/20 11:31:10;;;;;;;11.77;7.70;;;5.00;80.70;;;;;;5054817;28;20024;-88
2023/01/20 11:33:36;;;;;;;12.70;9.15;;;5.00;80.80;;;;;;5074767;28;20032;-89
2023/01/20 11:36:17;;;;;;;13.75;9.40;;;5.00;80.70;;;;;;5026066;28;20135;-89
2023/01/20 11:38:48;;;;;;;12.88;8.18;;;5.10;80.80;;;;;;5076548;28;20016;-90
2023/01/20 11:41:28;;;;;;;12.50;8.50;;;5.10;80.70;;;;;;5080776;28;20107;-89
2023/01/20 11:43:57;;;;;;;11.63;7.75;;;5.10;80.80;;;;;;5091894;28;20031;-90
2023/01/20 11:46:30;;;;;;;11.45;8.00;;;5.10;80.70;;;;;;5070121;28;20027;-90
2023/01/20 11:49:14;;;;;;;11.88;8.57;;;5.10;80.80;;;;;;5078814;28;20055;-88
2023/01/20 11:51:52;;;;;;;12.47;9.03;;;5.10;80.80;;;;;;5093197;28;20020;-88
2023/01/20 11:54:29;;;;;;;11.43;8.07;;;5.10;80.70;;;;;;5087075;28;20289;-89
2023/01/20 11:57:09;;;;;;;11.68;8.13;;;5.10;80.70;;;;;;5058413;28;20064;-90
2023/01/20 11:59:45;;;;;;;12.63;8.13;;;5.10;80.80;;;;;;5076620;28;20107;-89
2023/01/20 12:02:10;;;;;;;12.30;8.38;;;5.10;80.70;;;;;;5063482;28;20038;-89
2023/01/20 12:04:58;;;;;;;10.60;7.63;;;5.20;80.80;;;;;;5095482;28;20027;-91
2023/01/20 12:07:43;;;;;;;11.23;7.80;;;5.20;80.90;;;;;;5074737;28;20028;-90
2023/01/20 12:10:33;;;;;;;10.88;7.25;;;5.20;80.80;;;;;;5063003;28;20032;-89
2023/01/20 12:13:18;;;;;;;11.57;7.70;;;5.20;80.80;;;;;;5088720;28;20032;-89
2023/01/20 12:15:51;;;;;;;10.57;7.25;;;5.20;80.70;;;;;;5063916;28;20093;-90
2023/01/20 12:18:39;;;;;;;11.15;7.78;;;5.20;80.70;;;;;;5077664;28;20035;-90
2023/01/20 12:21:21;;;;;;;10.13;7.35;;;5.20;80.70;;;;;;5076249;28;20028;-88
2023/01/20 12:24:01;;;;;;;11.10;7.78;;;5.20;80.70;;;;;;5081205;28;20108;-90
2023/01/20 12:26:27;;;;;;;9.70;7.55;;;5.30;80.80;;;;;;5089873;28;20084;-90
2023/01/20 12:28:53;;;;;;;10.43;7.60;;;5.20;80.70;;;;;;5061638;28;20032;-89
2023/01/20 12:31:22;;;;;;;10.85;8.40;;;5.30;80.70;;;;;;5078174;28;20030;-90
2023/01/20 12:34:14;;;;;;;10.13;7.47;;;5.30;80.70;;;;;;5080979;28;20032;-89
2023/01/20 12:37:02;;;;;;;9.93;6.85;;;5.30;80.80;;;;;;5077218;28;20050;-89
2023/01/20 12:39:30;;;;;;;10.73;7.70;;;5.30;80.80;;;;;;5063127;28;20115;-90
2023/01/20 12:42:14;;;;;;;10.38;7.68;;;5.30;80.70;;;;;;5077202;28;20038;-89
2023/01/20 12:44:47;;;;;;;11.20;8.07;;;5.30;80.80;;;;;;5097812;28;20024;-91
2023/01/20 12:47:18;;;;;;;10.27;7.68;;;5.30;80.70;;;;;;5060046;28;20027;-91
2023/01/20 12:49:47;;;;;;;11.10;7.55;;;5.30;80.70;;;;;;5089457;28;20516;-91
2023/01/20 12:52:37;;;;;;;10.52;7.88;;;5.30;80.70;;;;;;5090749;28;20023;-90
2023/01/20 12:55:20;;;;;;;8.77;6.90;;;5.40;80.80;;;;;;5079989;28;20024;-90
2023/01/20 12:58:35;;;;;;;10.25;7.40;;;5.40;80.80;;;;;;5082314;28;20039;-90
2023/01/20 13:01:22;;;;;;;9.45;7.05;;;5.40;80.90;;;;;;5081838;28;20127;-90
2023/01/20 13:04:00;;;;;;;10.10;6.88;;;5.40;80.80;;;;;;5085205;28;20035;-89
2023/01/20 13:06:48;;;;;;;10.48;6.95;;;5.40;80.80;;;;;;5077642;28;20024;-89
2023/01/20 13:09:52;;;;;;;9.85;6.97;;;5.40;80.80;;;;;;5063595;28;20051;-90
2023/01/20 13:12:39;;;;;;;8.48;6.50;;;5.40;80.80;;;;;;5081247;28;20119;-90
2023/01/20 13:15:28;;;;;;;8.85;6.90;;;5.40;80.80;;;;;;5080901;28;20166;-85
2023/01/20 13:18:31;;;;;;;9.15;6.35;;;5.40;80.80;;;;;;5077760;28;20023;-85